Time;durP1;ratioP1;P1;durP2;ratioP2;P2;SDS_P1;SDS_P2;PMS_P1;PMS_P2;Temp;Humidity;BMP_temperature;BMP_pressure;BME280_temperature;BME280_humidity;BME280_pressure;Samples;Min_cycle;Max_cycle;Signal;HPM_P1;HPM_P2
2022/01/16 00:01:15;;;;;;;74.65;27.33;;;2.10;99.90;;;;;;5055602;28;20119;-63
2022/01/16 00:06:23;;;;;;;68.88;28.00;;;2.20;99.90;;;;;;5055194;28;20506;-62
2022/01/16 00:08:49;;;;;;;83.07;29.95;;;;;;;;;;5055056;28;20059;-62
2022/01/16 00:11:15;;;;;;;81.03;28.23;;;2.50;99.90;;;;;;5073243;28;20059;-63
2022/01/16 00:13:41;;;;;;;75.38;28.20;;;2.30;99.90;;;;;;5055088;28;20048;-62
2022/01/16 00:16:06;;;;;;;81.38;29.27;;;2.20;99.90;;;;;;5071944;28;20052;-62
2022/01/16 00:18:42;;;;;;;74.72;28.77;;;2.40;99.90;;;;;;5071711;28;20413;-62
2022/01/16 00:21:08;;;;;;;79.28;28.38;;;;;;;;;;5072187;28;20127;-62
2022/01/16 00:23:34;;;;;;;81.80;29.08;;;2.20;99.90;;;;;;5055066;28;20044;-62
2022/01/16 00:26:00;;;;;;;68.78;26.13;;;;;;;;;;5054977;28;20482;-63
2022/01/16 00:28:26;;;;;;;72.53;28.80;;;2.20;99.90;;;;;;5071782;28;20040;-63
2022/01/16 00:30:52;;;;;;;77.78;29.55;;;2.20;99.90;;;;;;5071823;28;20043;-62
2022/01/16 00:33:18;;;;;;;75.55;28.23;;;2.20;99.90;;;;;;5072793;28;20559;-62
2022/01/16 00:35:44;;;;;;;79.53;28.38;;;2.10;99.90;;;;;;5059200;28;20046;-63
2022/01/16 00:38:10;;;;;;;84.60;29.83;;;;;;;;;;5059204;28;20123;-63
2022/01/16 00:40:36;;;;;;;74.72;28.05;;;2.20;99.90;;;;;;5058966;28;20123;-62
2022/01/16 00:43:03;;;;;;;80.30;28.38;;;2.40;99.90;;;;;;5077193;28;20040;-63
2022/01/16 00:45:29;;;;;;;78.72;30.85;;;2.20;99.90;;;;;;5075693;28;20181;-63
2022/01/16 00:47:55;;;;;;;87.40;32.17;;;2.20;99.90;;;;;;5075827;28;20502;-62
2022/01/16 00:53:28;;;;;;;;;;;2.30;99.90;;;;;;5059034;28;20045;-63
2022/01/16 00:55:54;;;;;;;75.03;27.67;;;;;;;;;;5058894;28;20369;-62
2022/01/16 00:58:20;;;;;;;89.47;29.92;;;;;;;;;;5058765;28;20032;-63
2022/01/16 01:00:47;;;;;;;79.57;28.20;;;2.10;99.90;;;;;;5076803;28;20040;-63
2022/01/16 01:03:13;;;;;;;75.72;29.17;;;2.20;99.90;;;;;;5075323;28;20123;-63
2022/01/16 01:05:39;;;;;;;77.82;27.88;;;;;;;;;;5058671;28;20410;-63
2022/01/16 01:08:06;;;;;;;75.97;28.98;;;2.10;99.90;;;;;;5054878;28;20137;-61
2022/01/16 01:10:33;;;;;;;78.93;29.80;;;;;;;;;;5055410;28;20036;-61
2022/01/16 01:13:21;;;;;;;84.05;30.25;;;2.30;99.90;;;;;;5055133;28;20040;-61
2022/01/16 01:15:50;;;;;;;85.63;30.35;;;2.20;99.90;;;;;;5055742;28;20560;-61
2022/01/16 01:18:17;;;;;;;84.13;29.70;;;2.20;99.90;;;;;;5055054;28;20039;-61
2022/01/16 01:20:46;;;;;;;83.10;29.65;;;2.10;99.90;;;;;;5055187;28;20037;-61
2022/01/16 01:23:12;;;;;;;72.93;28.08;;;2.20;99.90;;;;;;5054726;28;20043;-61
2022/01/16 01:25:39;;;;;;;88.63;31.50;;;2.20;99.90;;;;;;5055066;28;20116;-61
2022/01/16 01:28:06;;;;;;;83.85;29.50;;;2.10;99.90;;;;;;5056135;28;20041;-61
2022/01/16 01:30:32;;;;;;;86.20;31.42;;;2.20;99.90;;;;;;5054928;28;20041;-61
2022/01/16 01:32:58;;;;;;;87.15;28.55;;;2.10;99.90;;;;;;5054766;28;20045;-61
2022/01/16 01:35:24;;;;;;;89.32;30.52;;;2.20;99.90;;;;;;5056035;28;20033;-61
2022/01/16 01:37:50;;;;;;;96.45;31.55;;;;;;;;;;5054711;28;20171;-61
2022/01/16 01:40:22;;;;;;;90.50;31.73;;;1.90;99.90;;;;;;5056097;28;20068;-61
2022/01/16 01:51:09;;;;;;;99.07;31.52;;;2.00;99.90;;;;;;5055469;28;20045;-61
2022/01/16 01:53:37;;;;;;;101.00;31.77;;;1.80;99.90;;;;;;5054952;28;20486;-62
2022/01/16 01:56:05;;;;;;;91.10;31.48;;;2.00;99.90;;;;;;5054709;28;20064;-61
2022/01/16 01:58:30;;;;;;;90.43;30.30;;;2.00;99.90;;;;;;5071326;28;20486;-62
2022/01/16 02:00:56;;;;;;;93.68;30.85;;;2.00;99.90;;;;;;5055539;28;20125;-61
2022/01/16 02:03:30;;;;;;;99.97;32.47;;;;;;;;;;5054401;28;20045;-61
2022/01/16 02:05:56;;;;;;;112.10;32.55;;;2.00;99.90;;;;;;5055568;28;20506;-61
2022/01/16 02:08:21;;;;;;;89.30;31.92;;;1.90;99.90;;;;;;5070621;28;20049;-62
2022/01/16 02:10:47;;;;;;;98.00;32.03;;;1.90;99.90;;;;;;5054615;28;20383;-61
2022/01/16 02:13:29;;;;;;;98.13;33.63;;;1.90;99.90;;;;;;5054115;28;20060;-61
2022/01/16 02:32:12;;;;;;;119.22;35.90;;;;;;;;;;5053694;28;20103;-61
2022/01/16 02:34:41;;;;;;;115.72;33.28;;;;;;;;;;5053957;28;20076;-61
2022/01/16 02:37:11;;;;;;;115.05;34.72;;;2.10;99.90;;;;;;5054925;28;20043;-61
2022/01/16 02:39:41;;;;;;;122.85;35.00;;;2.20;99.90;;;;;;5055124;28;20049;-61
2022/01/16 02:42:08;;;;;;;129.35;36.28;;;2.20;99.90;;;;;;5053857;28;20091;-61
2022/01/16 02:44:43;;;;;;;133.27;36.72;;;2.20;99.90;;;;;;5053410;28;20041;-61
2022/01/16 02:47:13;;;;;;;126.00;35.20;;;2.20;99.90;;;;;;5053650;28;20064;-62
2022/01/16 02:49:41;;;;;;;122.22;33.00;;;2.20;99.90;;;;;;5054734;28;20450;-61
2022/01/16 02:52:14;;;;;;;120.72;34.10;;;2.20;99.90;;;;;;5036955;28;20064;-61
2022/01/16 02:54:42;;;;;;;124.93;37.42;;;2.20;99.90;;;;;;5053330;28;20048;-61
2022/01/16 02:57:10;;;;;;;122.00;36.15;;;;;;;;;;5054232;28;20494;-61
2022/01/16 02:59:37;;;;;;;128.02;36.83;;;2.20;99.90;;;;;;5053131;28;20044;-61
2022/01/16 03:02:05;;;;;;;123.15;35.90;;;2.30;99.90;;;;;;5054498;28;20124;-61
2022/01/16 03:04:32;;;;;;;115.93;34.92;;;2.30;99.90;;;;;;5053365;28;20064;-61
2022/01/16 03:07:06;;;;;;;119.78;34.35;;;2.30;99.90;;;;;;5053350;28;20079;-61
2022/01/16 03:12:16;;;;;;;134.15;38.45;;;2.40;99.90;;;;;;5056175;28;20123;-61
2022/01/16 03:14:42;;;;;;;140.30;37.30;;;2.40;99.90;;;;;;5056568;28;20123;-61
2022/01/16 03:17:10;;;;;;;125.40;34.90;;;;;;;;;;5074297;28;20033;-61
2022/01/16 03:22:20;;;;;;;137.75;38.65;;;2.50;99.90;;;;;;5073866;28;20048;-61
2022/01/16 03:24:46;;;;;;;141.55;35.83;;;2.40;99.90;;;;;;5074204;28;20036;-61
2022/01/16 03:27:16;;;;;;;148.75;39.28;;;2.20;99.90;;;;;;5074173;28;20127;-61
2022/01/16 03:29:44;;;;;;;146.48;40.58;;;2.50;99.90;;;;;;5073836;28;20085;-61
2022/01/16 03:32:13;;;;;;;146.75;38.50;;;2.50;99.90;;;;;;5055922;28;20056;-61
2022/01/16 03:34:38;;;;;;;146.63;39.40;;;2.50;99.90;;;;;;5039242;28;20044;-61
2022/01/16 03:37:04;;;;;;;144.70;39.60;;;2.50;99.90;;;;;;5072539;28;20089;-61
2022/01/16 03:39:31;;;;;;;147.27;39.42;;;;;;;;;;5055942;28;20055;-61
2022/01/16 03:41:59;;;;;;;131.30;38.28;;;;;;;;;;5073787;28;20126;-61
2022/01/16 03:44:24;;;;;;;151.15;38.78;;;2.50;99.90;;;;;;5055988;28;20045;-61
2022/01/16 03:46:50;;;;;;;149.40;40.25;;;;;;;;;;5056210;28;20143;-63
2022/01/16 03:49:20;;;;;;;156.95;39.95;;;2.70;99.90;;;;;;5055739;28;20044;-63
2022/01/16 03:51:47;;;;;;;138.13;39.15;;;2.70;99.90;;;;;;5073480;28;20098;-63
2022/01/16 03:54:16;;;;;;;147.75;39.10;;;2.60;99.90;;;;;;5039080;28;20036;-63
2022/01/16 03:56:43;;;;;;;154.05;40.80;;;2.60;99.90;;;;;;5072088;28;20037;-62
2022/01/16 03:59:09;;;;;;;141.32;40.15;;;2.60;99.90;;;;;;5073401;28;20036;-63
2022/01/16 04:01:35;;;;;;;147.63;39.63;;;2.70;99.90;;;;;;5072216;28;20036;-63
2022/01/16 04:04:01;;;;;;;155.55;41.78;;;2.60;99.90;;;;;;5055255;28;20051;-63
2022/01/16 04:06:27;;;;;;;153.45;41.08;;;;;;;;;;5073742;28;20395;-63
2022/01/16 04:08:54;;;;;;;150.23;40.13;;;2.80;99.90;;;;;;5067595;28;20056;-63
2022/01/16 04:11:21;;;;;;;142.80;38.97;;;2.50;99.90;;;;;;5053260;28;20037;-63
2022/01/16 04:13:52;;;;;;;148.30;40.78;;;2.50;99.90;;;;;;5053100;28;20052;-62
2022/01/16 04:16:20;;;;;;;175.23;42.17;;;2.70;99.90;;;;;;5053172;28;20041;-63
2022/01/16 04:18:51;;;;;;;159.38;42.45;;;;;;;;;;5052185;28;20037;-63
2022/01/16 04:21:22;;;;;;;138.85;41.50;;;2.70;99.90;;;;;;5051958;28;20048;-63
2022/01/16 04:23:48;;;;;;;161.90;42.83;;;;;;;;;;5051815;28;20048;-63
2022/01/16 04:26:16;;;;;;;172.32;44.88;;;2.90;99.90;;;;;;5053168;28;20037;-63
2022/01/16 04:28:41;;;;;;;166.35;41.88;;;2.90;99.90;;;;;;5051657;28;20079;-63
2022/01/16 04:31:08;;;;;;;157.05;41.63;;;2.90;99.90;;;;;;5051903;28;20122;-63
2022/01/16 04:33:34;;;;;;;165.32;45.40;;;2.90;99.90;;;;;;5051847;28;20044;-63
2022/01/16 04:36:00;;;;;;;168.60;42.88;;;2.90;99.90;;;;;;5052049;28;20481;-63
2022/01/16 04:38:25;;;;;;;176.20;42.67;;;2.90;99.90;;;;;;5035169;28;20053;-63
2022/01/16 04:43:47;;;;;;;189.23;44.92;;;3.10;99.90;;;;;;5052864;28;20462;-63
2022/01/16 04:46:23;;;;;;;170.68;43.85;;;3.10;99.90;;;;;;5051844;28;20391;-63
2022/01/16 04:48:50;;;;;;;168.45;42.72;;;2.90;99.90;;;;;;5053007;28;20029;-63
2022/01/16 04:51:16;;;;;;;170.32;43.40;;;3.00;99.90;;;;;;5051421;28;20037;-63
2022/01/16 04:53:42;;;;;;;180.32;45.00;;;3.10;99.90;;;;;;5051566;28;20407;-63
2022/01/16 04:56:09;;;;;;;167.40;44.22;;;3.10;99.90;;;;;;5068513;28;20053;-63
2022/01/16 04:58:36;;;;;;;183.35;45.70;;;3.10;99.90;;;;;;5052537;28;20043;-63
2022/01/16 05:01:02;;;;;;;166.65;43.00;;;3.10;99.90;;;;;;5051528;28;20041;-63
2022/01/16 05:03:30;;;;;;;177.27;44.85;;;2.90;99.90;;;;;;5051451;28;20047;-63
2022/01/16 05:05:56;;;;;;;162.50;45.75;;;;;;;;;;5051349;28;20083;-63
2022/01/16 05:08:22;;;;;;;160.20;43.80;;;3.10;99.90;;;;;;5059262;28;20417;-63
2022/01/16 05:10:52;;;;;;;181.95;45.10;;;3.10;99.90;;;;;;5072648;28;20041;-63
2022/01/16 05:18:38;;;;;;;189.15;46.17;;;3.50;99.90;;;;;;5054934;28;20052;-63
2022/01/16 05:21:04;;;;;;;178.50;44.38;;;3.40;99.90;;;;;;5057361;28;20051;-63
2022/01/16 05:23:30;;;;;;;188.65;46.63;;;;;;;;;;5074812;28;20032;-63
2022/01/16 05:25:56;;;;;;;184.75;48.50;;;3.40;99.90;;;;;;5076396;28;20535;-63
2022/01/16 05:28:22;;;;;;;190.15;49.45;;;3.40;99.90;;;;;;5074752;28;20033;-63
2022/01/16 05:30:48;;;;;;;189.95;48.88;;;3.40;99.90;;;;;;5060294;28;20410;-63
2022/01/16 05:33:14;;;;;;;178.35;45.00;;;;;;;;;;5095113;28;20033;-63
2022/01/16 05:35:40;;;;;;;185.95;47.45;;;3.40;99.90;;;;;;5092736;28;20508;-63
2022/01/16 05:38:06;;;;;;;184.23;47.33;;;;;;;;;;5070189;28;20033;-63
2022/01/16 05:40:31;;;;;;;190.82;48.95;;;3.40;99.90;;;;;;5063707;28;20047;-63
2022/01/16 05:42:58;;;;;;;180.20;47.10;;;3.50;99.90;;;;;;5077502;28;20405;-63
2022/01/16 05:45:24;;;;;;;177.82;45.97;;;3.40;99.90;;;;;;5077291;28;20040;-63
2022/01/16 05:47:50;;;;;;;177.90;46.53;;;3.50;99.90;;;;;;5091370;28;20040;-63
2022/01/16 05:50:15;;;;;;;185.70;47.58;;;3.50;99.90;;;;;;5058220;28;20119;-63
2022/01/16 05:52:41;;;;;;;176.90;45.85;;;3.60;99.90;;;;;;5057419;28;20045;-63
2022/01/16 05:55:07;;;;;;;174.02;45.50;;;3.50;99.90;;;;;;5057371;28;20044;-63
2022/01/16 05:57:33;;;;;;;188.40;48.53;;;3.50;99.90;;;;;;5057493;28;20079;-63
2022/01/16 05:59:59;;;;;;;175.70;45.58;;;3.40;99.90;;;;;;5057462;28;20083;-63
2022/01/16 06:02:25;;;;;;;186.85;49.92;;;3.50;99.90;;;;;;5074039;28;20409;-63
2022/01/16 06:04:51;;;;;;;172.45;47.08;;;;;;;;;;5074249;28;20562;-62
2022/01/16 06:07:17;;;;;;;182.60;48.03;;;3.50;99.90;;;;;;5075166;28;20033;-63
2022/01/16 06:09:43;;;;;;;171.90;46.95;;;3.50;99.90;;;;;;5075224;28;20080;-63
2022/01/16 06:12:09;;;;;;;177.82;47.05;;;;;;;;;;5075390;28;20071;-63
2022/01/16 06:14:35;;;;;;;181.30;45.25;;;3.50;99.90;;;;;;5057269;28;20040;-63
2022/01/16 06:17:00;;;;;;;177.05;47.20;;;3.60;99.90;;;;;;5057334;28;20056;-63
2022/01/16 06:19:26;;;;;;;188.45;48.65;;;3.70;99.90;;;;;;5057592;28;20044;-63
2022/01/16 06:21:51;;;;;;;187.60;50.05;;;3.70;99.90;;;;;;5057013;28;20040;-63
2022/01/16 06:24:17;;;;;;;183.02;47.72;;;3.60;99.90;;;;;;5056982;28;20044;-63
2022/01/16 06:26:43;;;;;;;181.27;46.40;;;3.60;99.90;;;;;;5056971;28;20394;-63
2022/01/16 06:29:09;;;;;;;191.18;50.22;;;3.80;99.90;;;;;;5074988;28;20032;-63
2022/01/16 06:31:35;;;;;;;183.25;47.35;;;3.80;99.90;;;;;;5073965;28;20040;-63
2022/01/16 06:34:02;;;;;;;178.23;47.97;;;3.80;99.90;;;;;;5074819;28;20052;-63
2022/01/16 06:36:28;;;;;;;176.20;49.30;;;3.80;99.90;;;;;;5074732;28;20044;-63
2022/01/16 06:38:55;;;;;;;174.93;47.22;;;3.90;99.90;;;;;;5073284;28;20482;-63
2022/01/16 06:41:20;;;;;;;175.68;49.08;;;3.80;99.90;;;;;;5073604;28;20036;-63
2022/01/16 06:43:46;;;;;;;180.10;47.20;;;3.90;99.90;;;;;;5067218;28;20056;-63
2022/01/16 06:46:12;;;;;;;166.70;47.67;;;4.00;99.90;;;;;;5056560;28;20457;-63
2022/01/16 06:48:37;;;;;;;164.88;48.08;;;3.90;99.90;;;;;;5073055;28;20094;-63
2022/01/16 06:51:04;;;;;;;171.80;49.25;;;;;;;;;;5071797;28;20501;-63
2022/01/16 06:53:30;;;;;;;175.27;47.65;;;;;;;;;;5075074;28;20051;-63
2022/01/16 06:55:56;;;;;;;167.25;47.28;;;;;;;;;;5092861;28;20044;-63
2022/01/16 06:58:22;;;;;;;160.50;45.90;;;;;;;;;;5073329;28;20063;-63
2022/01/16 07:00:48;;;;;;;153.38;45.60;;;;;;;;;;5068352;28;20040;-63
2022/01/16 07:03:14;;;;;;;155.00;48.97;;;;;;;;;;5086475;28;20095;-63
2022/01/16 07:05:40;;;;;;;147.48;44.85;;;;;;;;;;5086601;28;20051;-64
2022/01/16 07:08:06;;;;;;;163.63;47.88;;;;;;;;;;5067744;28;20163;-64
2022/01/16 07:10:32;;;;;;;151.10;47.10;;;;;;;;;;5067981;28;20119;-64
2022/01/16 07:12:58;;;;;;;167.95;48.95;;;;;;;;;;5086731;28;20482;-64
2022/01/16 07:15:24;;;;;;;152.77;48.67;;;;;;;;;;5069951;28;20473;-64
2022/01/16 07:17:50;;;;;;;169.20;50.17;;;;;;;;;;5072282;28;20086;-64
2022/01/16 07:20:16;;;;;;;143.43;46.00;;;;;;;;;;5065323;28;20048;-65
2022/01/16 07:22:43;;;;;;;152.20;47.92;;;;;;;;;;5091583;28;20043;-64
2022/01/16 07:25:09;;;;;;;151.05;47.97;;;;;;;;;;5064087;28;20079;-64
2022/01/16 07:27:35;;;;;;;140.05;46.08;;;4.40;99.90;;;;;;5053679;28;20044;-64
2022/01/16 07:30:01;;;;;;;144.80;44.83;;;;;;;;;;5067149;28;20033;-65
2022/01/16 07:32:27;;;;;;;138.25;45.83;;;;;;;;;;5074688;28;20745;-66
2022/01/16 07:34:53;;;;;;;136.65;44.70;;;;;;;;;;5075969;28;20119;-65
2022/01/16 07:37:19;;;;;;;137.45;43.72;;;4.60;99.90;;;;;;5069602;28;20037;-66
2022/01/16 07:39:45;;;;;;;137.57;46.63;;;;;;;;;;5049099;28;20407;-66
2022/01/16 07:42:11;;;;;;;129.27;42.25;;;;;;;;;;5049225;28;20907;-65
2022/01/16 07:44:36;;;;;;;128.95;41.38;;;;;;;;;;5067244;28;20052;-66
2022/01/16 07:47:03;;;;;;;124.22;41.90;;;;;;;;;;5057093;28;20086;-66
2022/01/16 07:49:29;;;;;;;135.32;44.70;;;;;;;;;;5067116;28;20596;-66
2022/01/16 07:51:54;;;;;;;118.88;39.88;;;4.80;99.90;;;;;;5061735;28;20045;-66
2022/01/16 07:54:21;;;;;;;122.20;42.40;;;;;;;;;;5047365;28;20134;-65
2022/01/16 07:56:47;;;;;;;125.25;44.28;;;;;;;;;;5059457;28;20048;-64
2022/01/16 07:59:13;;;;;;;114.55;43.13;;;;;;;;;;5055789;28;20047;-65
2022/01/16 08:01:39;;;;;;;132.45;45.05;;;4.70;99.90;;;;;;5078786;28;20138;-65
2022/01/16 08:04:05;;;;;;;121.28;43.10;;;;;;;;;;5043906;28;20144;-65
2022/01/16 08:06:31;;;;;;;126.70;42.53;;;4.70;99.90;;;;;;5062647;28;20041;-64
2022/01/16 08:08:57;;;;;;;126.20;43.90;;;;;;;;;;5063054;28;20049;-63
2022/01/16 08:11:23;;;;;;;121.25;41.17;;;;;;;;;;5057470;28;20048;-65
2022/01/16 08:13:48;;;;;;;129.02;43.40;;;4.60;99.90;;;;;;5047544;28;20494;-65
2022/01/16 08:16:14;;;;;;;112.00;40.92;;;4.80;99.90;;;;;;5060722;28;20049;-66
2022/01/16 08:18:41;;;;;;;121.05;40.90;;;;;;;;;;5054631;28;20044;-66
2022/01/16 08:21:07;;;;;;;128.80;43.97;;;;;;;;;;5069355;28;20036;-65
2022/01/16 08:23:33;;;;;;;122.22;42.17;;;;;;;;;;5067453;28;20055;-65
2022/01/16 08:25:59;;;;;;;110.88;39.58;;;4.80;99.90;;;;;;5049518;28;20041;-64
2022/01/16 08:28:24;;;;;;;117.30;41.25;;;4.90;99.90;;;;;;5078869;28;20036;-64
2022/01/16 08:30:51;;;;;;;109.55;40.47;;;;;;;;;;5062326;28;20389;-64
2022/01/16 08:33:16;;;;;;;107.13;40.80;;;4.80;99.90;;;;;;5071072;28;20040;-65
2022/01/16 08:35:42;;;;;;;123.55;42.13;;;;;;;;;;5063804;28;20387;-65
2022/01/16 08:38:09;;;;;;;94.30;38.35;;;;;;;;;;5070120;28;20054;-65
2022/01/16 08:40:34;;;;;;;96.30;37.85;;;5.00;99.90;;;;;;5070006;28;20071;-64
2022/01/16 08:43:08;;;;;;;89.22;35.97;;;;;;;;;;5058228;28;20076;-64
2022/01/16 08:45:34;;;;;;;83.70;35.83;;;;;;;;;;5050805;28;20406;-65
2022/01/16 08:48:00;;;;;;;77.05;31.52;;;5.00;99.90;;;;;;5067796;28;20045;-64
2022/01/16 08:50:26;;;;;;;79.90;35.53;;;;;;;;;;5068684;28;20074;-65
2022/01/16 08:52:51;;;;;;;69.90;32.67;;;5.20;99.90;;;;;;5062117;28;20095;-64
2022/01/16 08:55:17;;;;;;;79.88;36.03;;;5.30;99.90;;;;;;5080726;28;20039;-64
2022/01/16 08:57:43;;;;;;;72.45;31.52;;;;;;;;;;5093305;28;20036;-64
2022/01/16 09:00:09;;;;;;;69.97;32.20;;;5.20;99.90;;;;;;5072760;28;20466;-64
2022/01/16 09:02:35;;;;;;;58.35;29.73;;;5.50;99.90;;;;;;5075186;28;20047;-64
2022/01/16 09:05:01;;;;;;;64.53;29.90;;;;;;;;;;5093196;28;20036;-64
2022/01/16 09:07:27;;;;;;;62.53;30.13;;;;;;;;;;5074374;28;20051;-64
2022/01/16 09:09:53;;;;;;;57.70;29.73;;;;;;;;;;5053828;28;20048;-63
2022/01/16 09:12:19;;;;;;;56.40;28.30;;;5.70;99.90;;;;;;5074975;28;20102;-64
2022/01/16 09:14:45;;;;;;;55.58;27.05;;;5.70;99.90;;;;;;5052617;28;20142;-64
2022/01/16 09:17:10;;;;;;;57.45;28.00;;;5.80;99.90;;;;;;5074690;28;20043;-64
2022/01/16 09:19:36;;;;;;;56.75;29.33;;;5.90;99.90;;;;;;5068267;28;20043;-64
2022/01/16 09:22:02;;;;;;;58.13;27.38;;;5.70;99.90;;;;;;5070560;28;20047;-65
2022/01/16 09:24:28;;;;;;;56.63;28.23;;;;;;;;;;5073414;28;20042;-65
2022/01/16 09:26:54;;;;;;;54.15;25.98;;;6.00;99.90;;;;;;5071319;28;20121;-65
2022/01/16 09:29:21;;;;;;;57.00;28.27;;;5.90;99.90;;;;;;5074823;28;20067;-65
2022/01/16 09:31:47;;;;;;;53.33;29.23;;;;;;;;;;5073958;28;20477;-64
2022/01/16 09:34:12;;;;;;;54.40;27.17;;;6.00;99.90;;;;;;5090609;28;20037;-65
2022/01/16 09:36:38;;;;;;;64.90;30.35;;;;;;;;;;5091378;28;20043;-64
2022/01/16 09:39:04;;;;;;;55.92;28.63;;;6.00;99.90;;;;;;5088838;28;20102;-62
2022/01/16 09:41:30;;;;;;;58.47;30.00;;;;;;;;;;5088942;28;20440;-66
2022/01/16 09:43:56;;;;;;;53.63;28.08;;;;;;;;;;5086984;28;20040;-66
2022/01/16 09:46:22;;;;;;;66.60;29.13;;;6.00;99.90;;;;;;5070103;28;20041;-66
2022/01/16 09:48:48;;;;;;;61.17;28.70;;;;;;;;;;5062788;28;20033;-65
2022/01/16 09:51:14;;;;;;;57.25;28.58;;;6.10;99.90;;;;;;5056328;28;20044;-65
2022/01/16 09:53:43;;;;;;;54.33;27.23;;;6.00;99.90;;;;;;5084245;28;20047;-62
2022/01/16 09:56:09;;;;;;;50.42;26.15;;;;;;;;;;5087476;28;20485;-64
2022/01/16 09:58:35;;;;;;;52.35;26.00;;;6.10;99.90;;;;;;5089193;28;20043;-65
2022/01/16 10:01:02;;;;;;;52.88;26.40;;;6.20;99.90;;;;;;5069600;28;20512;-65
2022/01/16 10:03:38;;;;;;;51.08;23.92;;;6.10;99.90;;;;;;5089752;28;20044;-64
2022/01/16 10:06:10;;;;;;;48.08;23.27;;;;;;;;;;5072728;28;20043;-64
2022/01/16 10:08:37;;;;;;;49.30;23.73;;;;;;;;;;5070257;28;20502;-65
2022/01/16 10:11:18;;;;;;;44.13;21.70;;;6.20;99.90;;;;;;5047425;28;20054;-64
2022/01/16 10:13:56;;;;;;;53.75;23.30;;;;;;;;;;5064739;28;20044;-64
2022/01/16 10:16:31;;;;;;;39.25;20.35;;;6.10;99.90;;;;;;5086829;28;20050;-64
2022/01/16 10:18:58;;;;;;;41.80;20.90;;;6.20;99.90;;;;;;5067550;28;20032;-65
2022/01/16 10:21:33;;;;;;;42.15;19.55;;;6.30;99.90;;;;;;5062517;28;20058;-64
2022/01/16 10:23:59;;;;;;;38.17;19.13;;;;;;;;;;5081864;28;20197;-64
2022/01/16 10:26:28;;;;;;;40.15;17.23;;;6.10;99.90;;;;;;5086960;28;20118;-64
2022/01/16 10:28:53;;;;;;;39.65;19.00;;;6.20;99.90;;;;;;5070855;28;20040;-65
2022/01/16 10:31:27;;;;;;;40.40;18.83;;;6.30;99.90;;;;;;5089386;28;20409;-65
2022/01/16 10:33:54;;;;;;;32.25;17.80;;;6.40;99.90;;;;;;5071293;28;20032;-65
2022/01/16 10:36:34;;;;;;;43.33;18.92;;;6.20;99.90;;;;;;5071719;28;20097;-65
2022/01/16 10:39:18;;;;;;;33.30;16.38;;;;;;;;;;5050866;28;20061;-65
2022/01/16 10:41:44;;;;;;;36.70;16.48;;;6.40;99.90;;;;;;5069911;28;20528;-65
2022/01/16 10:44:30;;;;;;;33.00;14.63;;;6.10;99.90;;;;;;5062595;28;20049;-65
2022/01/16 10:46:57;;;;;;;29.75;15.05;;;;;;;;;;5051399;28;20368;-65
2022/01/16 10:49:23;;;;;;;26.17;14.02;;;6.40;99.90;;;;;;5067541;28;20037;-65
2022/01/16 10:52:11;;;;;;;29.05;14.40;;;6.40;99.90;;;;;;5061574;28;20087;-65
2022/01/16 10:54:40;;;;;;;30.00;14.75;;;6.30;99.90;;;;;;5038914;28;20060;-65
2022/01/16 10:57:26;;;;;;;30.38;14.85;;;6.20;99.90;;;;;;5090098;28;20036;-65
2022/01/16 10:59:52;;;;;;;;;;;;;;;;;;5063593;28;20062;-66
2022/01/16 11:02:18;;;;;;;29.45;12.52;;;;;;;;;;5078987;28;19927;-65
2022/01/16 11:04:44;;;;;;;30.65;12.73;;;;;;;;;;5060016;28;20040;-65
2022/01/16 11:07:10;;;;;;;26.42;12.63;;;;;;;;;;5063766;28;20036;-65
2022/01/16 11:09:36;;;;;;;25.17;10.75;;;6.60;99.90;;;;;;5062508;28;20056;-65
2022/01/16 11:12:02;;;;;;;23.05;10.63;;;6.60;99.90;;;;;;5068122;28;20051;-65
2022/01/16 11:14:28;;;;;;;22.35;9.65;;;;;;;;;;5084458;28;20111;-65
2022/01/16 11:16:55;;;;;;;25.52;9.00;;;6.70;99.90;;;;;;5069121;28;20047;-64
2022/01/16 11:19:23;;;;;;;16.02;8.57;;;;;;;;;;5054401;28;20044;-65
2022/01/16 11:21:53;;;;;;;21.20;8.00;;;6.70;99.90;;;;;;5084645;28;20052;-65
2022/01/16 11:26:51;;;;;;;19.27;8.50;;;;;;;;;;5066763;28;20101;-65
2022/01/16 11:29:17;;;;;;;17.85;7.93;;;;;;;;;;5069624;28;20055;-64
2022/01/16 11:31:43;;;;;;;23.48;8.38;;;;;;;;;;5064800;28;20044;-64
2022/01/16 11:34:10;;;;;;;13.52;8.13;;;7.00;99.90;;;;;;5047992;28;20056;-64
2022/01/16 11:36:36;;;;;;;18.33;8.25;;;;;;;;;;5055994;28;20045;-65
2022/01/16 11:39:11;;;;;;;22.25;8.50;;;7.00;99.90;;;;;;5046966;28;20093;-65
2022/01/16 11:41:50;;;;;;;16.57;8.27;;;;;;;;;;5067140;28;20451;-65
2022/01/16 11:44:23;;;;;;;19.30;7.85;;;6.80;99.90;;;;;;5072427;28;20075;-64
2022/01/16 11:46:51;;;;;;;21.02;8.52;;;6.80;99.90;;;;;;5072196;28;20479;-64
2022/01/16 11:49:19;;;;;;;14.43;7.20;;;;;;;;;;5061010;28;20036;-65
2022/01/16 11:51:51;;;;;;;23.00;8.63;;;6.80;99.90;;;;;;5067278;28;20131;-64
2022/01/16 11:54:21;;;;;;;18.25;8.43;;;;;;;;;;5082260;28;20036;-64
2022/01/16 11:56:46;;;;;;;19.50;7.60;;;6.70;99.90;;;;;;5088847;28;20072;-65
2022/01/16 11:59:12;;;;;;;18.27;8.13;;;6.90;99.90;;;;;;5072175;28;20078;-64
2022/01/16 12:01:57;;;;;;;16.48;7.07;;;6.90;99.90;;;;;;5069996;28;20040;-63
2022/01/16 12:04:31;;;;;;;24.83;8.70;;;6.90;99.90;;;;;;5065721;28;20086;-65
2022/01/16 12:07:13;;;;;;;17.30;7.15;;;;;;;;;;5051868;28;20627;-64
2022/01/16 12:09:47;;;;;;;18.17;7.97;;;;;;;;;;5064765;28;20051;-65
2022/01/16 12:12:12;;;;;;;22.17;8.13;;;7.10;99.90;;;;;;5058194;28;20044;-66
2022/01/16 12:14:56;;;;;;;19.00;8.85;;;7.10;99.90;;;;;;5081503;28;20039;-65
2022/01/16 12:17:33;;;;;;;14.93;7.15;;;7.00;99.90;;;;;;5067336;28;20047;-65
2022/01/16 12:20:11;;;;;;;23.70;8.75;;;7.10;99.90;;;;;;5064043;28;20048;-65
2022/01/16 12:22:55;;;;;;;17.95;7.55;;;7.10;99.90;;;;;;5058258;28;20043;-64
2022/01/16 12:25:27;;;;;;;19.92;7.80;;;7.00;99.90;;;;;;5084749;28;20040;-62
2022/01/16 12:28:04;;;;;;;15.88;7.70;;;7.10;99.90;;;;;;5062563;28;20037;-64
2022/01/16 12:30:42;;;;;;;23.35;7.88;;;7.10;99.90;;;;;;5065341;28;20122;-64
2022/01/16 12:33:09;;;;;;;24.95;7.65;;;;;;;;;;5066929;28;20114;-64
2022/01/16 12:35:40;;;;;;;17.00;7.70;;;7.20;99.90;;;;;;5064445;28;20040;-65
2022/01/16 12:38:10;;;;;;;15.35;7.78;;;7.20;99.90;;;;;;5085587;28;20044;-63
2022/01/16 12:40:43;;;;;;;19.13;8.93;;;;;;;;;;5067215;28;20032;-64
2022/01/16 12:43:12;;;;;;;18.42;8.65;;;7.40;99.90;;;;;;5051896;28;20126;-63
2022/01/16 12:45:39;;;;;;;15.75;6.97;;;7.20;99.90;;;;;;5082575;28;20032;-64
2022/01/16 12:48:06;;;;;;;16.75;7.78;;;7.20;99.90;;;;;;5086866;28;20493;-63
2022/01/16 12:50:32;;;;;;;12.93;8.05;;;7.10;99.90;;;;;;5071145;28;20050;-63
2022/01/16 12:52:57;;;;;;;14.98;7.90;;;7.20;99.90;;;;;;5086733;28;20040;-64
2022/01/16 12:55:31;;;;;;;14.05;7.38;;;7.20;99.90;;;;;;5065667;28;20040;-64
2022/01/16 12:58:16;;;;;;;15.05;8.38;;;7.20;99.90;;;;;;5067559;28;20040;-65
2022/01/16 13:01:04;;;;;;;15.25;7.70;;;7.30;99.90;;;;;;5049544;28;20090;-63
2022/01/16 13:03:31;;;;;;;19.38;8.00;;;7.30;99.90;;;;;;5050171;28;20045;-63
2022/01/16 13:06:16;;;;;;;18.27;7.25;;;7.30;99.90;;;;;;5052435;28;20040;-64
2022/01/16 13:09:00;;;;;;;20.23;9.25;;;7.20;99.90;;;;;;5059781;28;20407;-63
2022/01/16 13:11:35;;;;;;;18.65;8.05;;;7.20;99.90;;;;;;5059525;28;20051;-64
2022/01/16 13:14:01;;;;;;;17.83;7.57;;;;;;;;;;5065609;28;20040;-64
2022/01/16 13:16:47;;;;;;;18.52;7.95;;;7.00;99.90;;;;;;5059048;28;20282;-64
2022/01/16 13:19:19;;;;;;;15.10;6.63;;;7.10;99.90;;;;;;5039257;28;20045;-64
2022/01/16 13:21:47;;;;;;;18.75;7.05;;;;;;;;;;5050281;28;20052;-64
2022/01/16 13:24:33;;;;;;;16.02;7.75;;;;;;;;;;5070667;28;20080;-62
2022/01/16 13:27:01;;;;;;;17.45;7.60;;;7.20;99.90;;;;;;5060942;28;20044;-63
2022/01/16 13:29:27;;;;;;;16.67;8.00;;;7.50;99.90;;;;;;5069383;28;20040;-63
2022/01/16 13:31:53;;;;;;;20.05;8.48;;;7.50;99.90;;;;;;5059074;28;20835;-63
2022/01/16 13:34:30;;;;;;;17.40;6.65;;;7.20;99.90;;;;;;5070509;28;20044;-64
2022/01/16 13:36:57;;;;;;;16.15;7.38;;;7.30;99.90;;;;;;5040294;28;20513;-62
2022/01/16 13:39:36;;;;;;;14.07;6.45;;;;;;;;;;5065324;28;20529;-63
2022/01/16 13:42:30;;;;;;;21.48;7.10;;;7.20;99.90;;;;;;5068049;28;20041;-65
2022/01/16 13:45:19;;;;;;;13.18;7.30;;;7.20;99.90;;;;;;5066803;28;20041;-64
2022/01/16 13:48:02;;;;;;;14.13;6.85;;;7.30;99.90;;;;;;5050926;28;20053;-63
2022/01/16 13:50:31;;;;;;;15.75;6.32;;;7.40;99.90;;;;;;5039934;28;20499;-62
2022/01/16 13:53:02;;;;;;;18.70;7.43;;;7.20;99.90;;;;;;5061024;28;20494;-62
2022/01/16 13:55:30;;;;;;;17.60;6.55;;;7.40;99.90;;;;;;5069467;28;20465;-62
2022/01/16 13:57:57;;;;;;;17.33;7.28;;;;;;;;;;5052912;28;20051;-63